createdAt,value
2023-01-08T00:01:09.730Z,3.40
2023-01-08T00:03:39.604Z,3.67
2023-01-08T00:06:10.325Z,3.93
2023-01-08T00:08:39.025Z,3.67
2023-01-08T00:11:09.176Z,3.60
2023-01-08T00:13:37.631Z,4.10
2023-01-08T00:16:07.028Z,3.87
2023-01-08T00:18:35.755Z,3.77
2023-01-08T00:21:04.430Z,4.10
2023-01-08T00:23:33.044Z,4.17
2023-01-08T00:26:02.537Z,3.83
2023-01-08T00:28:32.438Z,4.20
2023-01-08T00:31:03.503Z,4.50
2023-01-08T00:33:32.505Z,4.37
2023-01-08T00:36:00.982Z,4.77
2023-01-08T00:38:29.598Z,4.30
2023-01-08T00:40:58.070Z,4.43
2023-01-08T00:43:26.456Z,4.90
2023-01-08T00:45:56.240Z,4.80
2023-01-08T00:48:24.915Z,3.90
2023-01-08T00:50:54.196Z,4.57
2023-01-08T00:53:23.841Z,4.50
2023-01-08T00:55:52.231Z,4.70
2023-01-08T00:58:20.518Z,5.20
2023-01-08T01:00:48.967Z,5.00
2023-01-08T01:03:18.699Z,5.17
2023-01-08T01:05:47.552Z,5.00
2023-01-08T01:08:16.264Z,5.00
2023-01-08T01:10:46.063Z,5.13
2023-01-08T01:13:15.086Z,5.30
2023-01-08T01:15:43.730Z,5.23
2023-01-08T01:18:12.808Z,4.73
2023-01-08T01:20:42.545Z,5.27
2023-01-08T01:23:10.954Z,5.50
2023-01-08T01:25:39.645Z,4.30
2023-01-08T01:28:08.277Z,5.07
2023-01-08T01:30:37.111Z,4.17
2023-01-08T01:33:05.790Z,4.80
2023-01-08T01:35:34.217Z,4.50
2023-01-08T01:38:04.397Z,5.00
2023-01-08T01:40:32.742Z,4.73
2023-01-08T01:43:01.448Z,4.43
2023-01-08T01:45:29.953Z,4.13
2023-01-08T01:48:00.690Z,4.53
2023-01-08T01:50:31.770Z,4.80
2023-01-08T01:53:04.773Z,4.73
2023-01-08T01:55:34.973Z,4.50
2023-01-08T01:58:07.791Z,4.57
2023-01-08T02:00:36.957Z,4.23
2023-01-08T02:03:07.086Z,4.27
2023-01-08T02:05:40.486Z,4.73
2023-01-08T02:08:13.473Z,4.90
2023-01-08T02:10:46.959Z,4.70
2023-01-08T02:13:16.775Z,4.27
2023-01-08T02:15:50.929Z,4.23
2023-01-08T02:18:21.919Z,4.37
2023-01-08T02:20:55.424Z,4.20
2023-01-08T02:23:29.274Z,5.20
2023-01-08T02:26:13.977Z,4.33
2023-01-08T02:28:45.771Z,4.73
2023-01-08T02:31:14.663Z,4.30
2023-01-08T02:33:43.224Z,4.37
2023-01-08T02:36:39.789Z,4.13
2023-01-08T02:39:17.134Z,4.20
2023-01-08T02:41:54.758Z,4.27
2023-01-08T02:44:28.057Z,4.07
2023-01-08T02:46:57.470Z,4.17
2023-01-08T02:49:31.437Z,4.47
2023-01-08T02:52:00.983Z,4.53
2023-01-08T02:54:31.699Z,4.57
2023-01-08T02:57:05.617Z,3.53
2023-01-08T02:59:34.578Z,4.10
2023-01-08T03:02:04.359Z,4.17
2023-01-08T03:04:37.876Z,4.10
2023-01-08T03:07:06.447Z,3.97
2023-01-08T03:09:34.904Z,3.80
2023-01-08T03:12:10.427Z,3.97
2023-01-08T03:14:42.734Z,3.73
2023-01-08T03:17:18.922Z,3.60
2023-01-08T03:19:51.236Z,4.00
2023-01-08T03:22:20.055Z,3.57
2023-01-08T03:24:52.183Z,3.70
2023-01-08T03:27:25.982Z,3.60
2023-01-08T03:29:55.710Z,3.70
2023-01-08T03:32:24.796Z,3.80
2023-01-08T03:34:54.718Z,3.43
2023-01-08T03:37:25.751Z,3.57
2023-01-08T03:39:57.330Z,3.80
2023-01-08T03:42:27.664Z,3.90
2023-01-08T03:44:56.117Z,3.70
2023-01-08T03:47:25.434Z,3.53
2023-01-08T03:49:54.813Z,3.30
2023-01-08T03:52:24.642Z,3.40
2023-01-08T03:54:53.228Z,3.70
2023-01-08T03:57:21.818Z,3.50
2023-01-08T03:59:51.754Z,3.77
2023-01-08T04:02:20.397Z,3.40
2023-01-08T04:04:49.276Z,3.90
2023-01-08T04:07:17.573Z,3.40
2023-01-08T04:09:45.996Z,3.53
2023-01-08T04:12:14.438Z,3.00
2023-01-08T04:14:42.836Z,3.43
2023-01-08T04:17:14.780Z,3.53
2023-01-08T04:19:43.198Z,3.87
2023-01-08T04:22:11.944Z,3.63
2023-01-08T04:24:40.326Z,3.50
2023-01-08T04:27:08.719Z,3.17
2023-01-08T04:29:37.163Z,3.70
2023-01-08T04:32:05.969Z,3.77
2023-01-08T04:34:35.910Z,3.73
2023-01-08T04:37:04.208Z,4.00
2023-01-08T04:39:32.646Z,4.23
2023-01-08T04:42:01.097Z,3.90
2023-01-08T04:44:29.500Z,4.10
2023-01-08T04:46:57.970Z,4.20
2023-01-08T04:49:26.519Z,3.53
2023-01-08T04:51:56.284Z,4.13
2023-01-08T04:54:24.746Z,4.20
2023-01-08T04:56:53.154Z,4.80
2023-01-08T04:59:21.687Z,3.90
2023-01-08T05:01:50.197Z,4.37
2023-01-08T05:04:18.704Z,4.40
2023-01-08T05:06:47.000Z,3.80
2023-01-08T05:09:16.784Z,3.93
2023-01-08T05:11:45.235Z,3.80
2023-01-08T05:14:13.570Z,4.20
2023-01-08T05:16:42.108Z,4.03
2023-01-08T05:19:10.544Z,3.97
2023-01-08T05:21:39.079Z,3.73
2023-01-08T05:24:09.327Z,3.77
2023-01-08T05:26:39.139Z,4.00
2023-01-08T05:29:07.552Z,4.20
2023-01-08T05:31:36.505Z,3.80
2023-01-08T05:34:04.972Z,4.43
2023-01-08T05:36:33.464Z,4.10
2023-01-08T05:39:02.032Z,4.17
2023-01-08T05:41:30.517Z,4.50
2023-01-08T05:44:00.306Z,4.37
2023-01-08T05:46:28.879Z,4.17
2023-01-08T05:48:57.300Z,5.80
2023-01-08T05:51:25.657Z,4.57
2023-01-08T05:53:54.308Z,4.53
2023-01-08T05:56:22.913Z,4.43
2023-01-08T05:58:51.263Z,4.43
2023-01-08T06:01:21.168Z,5.27
2023-01-08T06:03:49.756Z,5.17
2023-01-08T06:06:18.385Z,4.60
2023-01-08T06:08:46.861Z,5.27
2023-01-08T06:11:15.573Z,5.20
2023-01-08T06:13:45.016Z,5.07
2023-01-08T06:16:14.012Z,4.83
2023-01-08T06:18:44.003Z,4.57
2023-01-08T06:21:13.337Z,5.33
2023-01-08T06:23:41.769Z,4.83
2023-01-08T06:26:10.244Z,5.27
2023-01-08T06:28:38.630Z,4.77
2023-01-08T06:31:07.079Z,5.20
2023-01-08T06:33:35.567Z,5.00
2023-01-08T06:36:06.441Z,4.87
2023-01-08T06:38:35.523Z,4.30
2023-01-08T06:41:05.489Z,4.40
2023-01-08T06:43:36.330Z,5.23
2023-01-08T06:46:05.505Z,5.93
2023-01-08T06:48:33.836Z,4.63
2023-01-08T06:51:02.883Z,5.33
2023-01-08T06:53:32.768Z,4.80
2023-01-08T06:56:01.139Z,5.23
2023-01-08T06:58:30.467Z,4.80
2023-01-08T07:00:59.540Z,5.40
2023-01-08T07:03:28.116Z,5.67
2023-01-08T07:05:56.766Z,5.10
2023-01-08T07:08:25.350Z,5.03
2023-01-08T07:10:55.497Z,5.40
2023-01-08T07:13:24.488Z,5.73
2023-01-08T07:15:52.886Z,4.93
2023-01-08T07:18:21.287Z,5.20
2023-01-08T07:20:49.931Z,5.10
2023-01-08T07:23:19.087Z,5.43
2023-01-08T07:25:47.633Z,5.83
2023-01-08T07:28:17.568Z,6.00
2023-01-08T07:30:46.141Z,5.60
2023-01-08T07:33:14.648Z,6.50
2023-01-08T07:35:42.962Z,6.87
2023-01-08T07:38:11.507Z,6.73
2023-01-08T07:40:39.779Z,6.97
2023-01-08T07:43:08.121Z,6.90
2023-01-08T07:45:37.771Z,6.73
2023-01-08T07:48:06.524Z,7.20
2023-01-08T07:50:35.148Z,7.17
2023-01-08T07:53:04.120Z,6.73
2023-01-08T07:55:33.102Z,6.50
2023-01-08T07:58:01.537Z,7.00
2023-01-08T08:00:30.069Z,6.93
2023-01-08T08:03:04.583Z,7.10
2023-01-08T08:05:33.161Z,7.90
2023-01-08T08:08:01.568Z,7.70
2023-01-08T08:10:30.009Z,7.87
2023-01-08T08:12:58.576Z,7.10
2023-01-08T08:15:26.979Z,7.37
2023-01-08T08:17:55.601Z,7.30
2023-01-08T08:20:25.607Z,7.23
2023-01-08T08:22:54.191Z,7.77
2023-01-08T08:25:22.601Z,7.53
2023-01-08T08:27:51.163Z,7.20
2023-01-08T08:30:19.723Z,7.43
2023-01-08T08:32:48.281Z,7.40
2023-01-08T08:35:16.694Z,6.13
2023-01-08T08:37:46.399Z,6.23
2023-01-08T08:40:14.964Z,6.20
2023-01-08T08:42:43.643Z,6.83
2023-01-08T08:45:12.095Z,6.77
2023-01-08T08:47:40.706Z,6.90
2023-01-08T08:50:09.924Z,6.23
2023-01-08T08:52:38.475Z,6.70
2023-01-08T08:55:08.792Z,7.77
2023-01-08T08:57:37.222Z,7.37
2023-01-08T09:00:06.387Z,7.30
2023-01-08T09:02:34.999Z,7.73
2023-01-08T09:05:03.447Z,8.17
2023-01-08T09:07:31.765Z,6.97
2023-01-08T09:10:00.029Z,7.17
2023-01-08T09:12:30.244Z,7.17
2023-01-08T09:14:58.722Z,6.47
2023-01-08T09:17:27.092Z,6.67
2023-01-08T09:19:55.505Z,6.47
2023-01-08T09:22:23.829Z,8.70
2023-01-08T09:24:52.221Z,6.27
2023-01-08T09:27:20.542Z,6.60
2023-01-08T09:29:50.210Z,7.30
2023-01-08T09:32:18.725Z,7.10
2023-01-08T09:34:47.212Z,8.40
2023-01-08T09:37:15.668Z,7.40
2023-01-08T09:39:48.035Z,7.07
2023-01-08T09:42:17.144Z,7.40
2023-01-08T09:44:45.823Z,7.47
2023-01-08T09:47:23.627Z,7.07
2023-01-08T09:49:53.861Z,7.50
2023-01-08T09:52:22.664Z,7.00
2023-01-08T09:54:50.919Z,7.10
2023-01-08T09:57:21.609Z,7.43
2023-01-08T09:59:50.834Z,8.00
2023-01-08T10:02:22.734Z,8.27
2023-01-08T10:04:55.696Z,7.03
2023-01-08T10:07:25.425Z,7.03
2023-01-08T10:09:54.298Z,7.17
2023-01-08T10:12:28.005Z,7.27
2023-01-08T10:15:00.651Z,7.47
2023-01-08T10:17:32.845Z,7.03
2023-01-08T10:20:01.139Z,7.57
2023-01-08T10:22:33.875Z,7.07
2023-01-08T10:25:08.173Z,7.30
2023-01-08T10:27:47.687Z,7.33
2023-01-08T10:30:20.747Z,6.97
2023-01-08T10:32:54.504Z,7.40
2023-01-08T10:35:25.957Z,6.90
2023-01-08T10:37:54.585Z,7.10
2023-01-08T10:40:29.549Z,6.40
2023-01-08T10:42:59.428Z,6.87
2023-01-08T10:45:29.555Z,6.57
2023-01-08T10:48:02.008Z,6.10
2023-01-08T10:50:31.967Z,7.07
2023-01-08T10:53:01.891Z,6.47
2023-01-08T10:55:32.751Z,6.17
2023-01-08T10:58:02.415Z,6.60
2023-01-08T11:00:32.991Z,6.73
2023-01-08T11:03:05.122Z,5.83
2023-01-08T11:05:35.875Z,6.40
2023-01-08T11:08:06.557Z,5.90
2023-01-08T11:10:35.973Z,6.27
2023-01-08T11:13:05.932Z,6.10
2023-01-08T11:15:39.329Z,6.50
2023-01-08T11:18:16.056Z,6.83
2023-01-08T11:20:44.546Z,13.40
2023-01-08T11:23:19.094Z,11.10
2023-01-08T11:25:53.617Z,9.43
2023-01-08T11:28:28.668Z,11.30
2023-01-08T11:31:03.169Z,10.90
2023-01-08T11:33:34.487Z,8.37
2023-01-08T11:36:05.991Z,10.37
2023-01-08T11:38:34.341Z,6.00
2023-01-08T11:41:12.843Z,7.40
2023-01-08T11:43:51.062Z,7.47
2023-01-08T11:46:28.439Z,8.73
2023-01-08T11:49:20.181Z,6.73
2023-01-08T11:52:00.212Z,6.43
2023-01-08T11:54:40.981Z,6.17
2023-01-08T11:57:21.788Z,6.13
2023-01-08T12:00:00.290Z,5.90
2023-01-08T12:02:37.966Z,6.37
2023-01-08T12:05:24.833Z,7.43
2023-01-08T12:08:00.863Z,6.47
2023-01-08T12:10:37.924Z,6.60
2023-01-08T12:13:16.056Z,5.90
2023-01-08T12:16:02.443Z,6.30
2023-01-08T12:19:12.704Z,6.47
2023-01-08T12:21:50.726Z,5.97
2023-01-08T12:24:28.615Z,5.83
2023-01-08T12:27:02.932Z,5.57
2023-01-08T12:29:42.373Z,5.90
2023-01-08T12:32:23.290Z,5.50
2023-01-08T12:34:57.534Z,6.60
2023-01-08T12:37:30.441Z,5.80
2023-01-08T12:40:07.114Z,5.70
2023-01-08T12:42:38.903Z,4.77
2023-01-08T12:45:14.441Z,5.30
2023-01-08T12:47:45.535Z,5.17
2023-01-08T12:50:40.782Z,5.23
2023-01-08T12:53:16.008Z,5.23
2023-01-08T12:55:48.255Z,4.50
2023-01-08T12:58:32.923Z,5.60
2023-01-08T13:01:12.638Z,5.13
2023-01-08T13:03:41.291Z,5.50
2023-01-08T13:06:13.258Z,4.73
2023-01-08T13:08:46.450Z,4.37
2023-01-08T13:11:14.905Z,5.13
2023-01-08T13:13:45.366Z,5.37
2023-01-08T13:16:22.006Z,4.17
2023-01-08T13:18:55.157Z,4.90
2023-01-08T13:21:35.233Z,4.87
2023-01-08T13:24:08.143Z,5.20
2023-01-08T13:26:37.781Z,4.67
2023-01-08T13:29:28.779Z,5.03
2023-01-08T13:31:57.249Z,4.80
2023-01-08T13:34:38.930Z,5.27
2023-01-08T13:37:11.400Z,5.27
2023-01-08T13:39:46.271Z,4.77
2023-01-08T13:42:23.852Z,5.33
2023-01-08T13:44:53.639Z,4.77
2023-01-08T13:47:28.466Z,5.23
2023-01-08T13:49:57.680Z,4.80
2023-01-08T13:52:35.248Z,4.67
2023-01-08T13:55:06.600Z,4.83
2023-01-08T13:57:39.487Z,4.70
2023-01-08T14:00:10.771Z,4.83
2023-01-08T14:02:50.480Z,5.00
2023-01-08T14:05:25.194Z,4.50
2023-01-08T14:07:53.911Z,5.17
2023-01-08T14:10:24.249Z,5.00
2023-01-08T14:12:52.925Z,4.67
2023-01-08T14:15:25.111Z,5.30
2023-01-08T14:17:54.150Z,4.63
2023-01-08T14:20:30.287Z,5.10
2023-01-08T14:22:59.245Z,5.10
2023-01-08T14:25:29.439Z,5.00
2023-01-08T14:28:03.045Z,5.57
2023-01-08T14:30:31.525Z,5.00
2023-01-08T14:33:00.767Z,5.20
2023-01-08T14:35:33.015Z,5.40
2023-01-08T14:38:02.199Z,4.93
2023-01-08T14:40:34.780Z,5.43
2023-01-08T14:43:10.750Z,5.37
2023-01-08T14:45:39.957Z,4.80
2023-01-08T14:48:14.908Z,5.10
2023-01-08T14:50:44.573Z,4.70
2023-01-08T14:53:20.868Z,5.33
2023-01-08T14:55:51.593Z,5.00
2023-01-08T14:58:23.219Z,6.27
2023-01-08T15:00:54.257Z,5.47
2023-01-08T15:03:34.313Z,6.07
2023-01-08T15:06:03.029Z,5.23
2023-01-08T15:08:36.544Z,5.83
2023-01-08T15:11:09.184Z,7.70
2023-01-08T15:13:39.024Z,6.77
2023-01-08T15:16:10.239Z,7.53
2023-01-08T15:18:44.556Z,7.67
2023-01-08T15:21:18.402Z,5.77
2023-01-08T15:23:49.903Z,8.60
2023-01-08T15:26:20.236Z,8.97
2023-01-08T15:28:54.360Z,7.57
2023-01-08T15:31:28.101Z,11.07
2023-01-08T15:33:57.262Z,6.07
2023-01-08T15:36:29.274Z,6.10
2023-01-08T15:38:57.810Z,6.43
2023-01-08T15:41:52.090Z,5.47
2023-01-08T15:44:20.477Z,6.67
2023-01-08T15:46:49.090Z,7.33
2023-01-08T15:49:17.807Z,6.60
2023-01-08T15:51:49.428Z,6.07
2023-01-08T15:54:18.110Z,6.23
2023-01-08T15:56:47.796Z,6.57
2023-01-08T15:59:16.145Z,6.20
2023-01-08T16:01:44.788Z,6.20
2023-01-08T16:04:13.326Z,6.37
2023-01-08T16:06:42.453Z,6.70
2023-01-08T16:09:11.015Z,6.70
2023-01-08T16:11:39.415Z,6.23
2023-01-08T16:14:09.312Z,7.00
2023-01-08T16:16:37.780Z,6.63
2023-01-08T16:19:06.242Z,7.57
2023-01-08T16:21:34.616Z,6.23
2023-01-08T16:24:03.406Z,6.90
2023-01-08T16:26:31.626Z,6.60
2023-01-08T16:28:59.923Z,6.57
2023-01-08T16:31:29.895Z,5.47
2023-01-08T16:34:02.834Z,6.20
2023-01-08T16:36:31.196Z,6.17
2023-01-08T16:38:59.611Z,5.90
2023-01-08T16:41:28.142Z,5.97
2023-01-08T16:43:56.499Z,6.10
2023-01-08T16:46:25.097Z,6.53
2023-01-08T16:48:55.117Z,7.20
2023-01-08T16:51:25.368Z,7.23
2023-01-08T16:53:53.747Z,7.37
2023-01-08T16:56:22.231Z,7.67
2023-01-08T16:58:52.403Z,7.63
2023-01-08T17:01:21.201Z,8.13
2023-01-08T17:03:49.874Z,8.00
2023-01-08T17:06:19.628Z,8.80
2023-01-08T17:08:48.328Z,8.77
2023-01-08T17:11:18.977Z,8.47
2023-01-08T17:13:47.931Z,9.07
2023-01-08T17:16:19.049Z,9.20
2023-01-08T17:18:47.574Z,10.40
2023-01-08T17:21:18.134Z,9.80
2023-01-08T17:23:48.391Z,10.87
2023-01-08T17:26:18.548Z,11.30
2023-01-08T17:28:47.700Z,9.90
2023-01-08T17:31:18.327Z,10.87
2023-01-08T17:33:50.158Z,10.73
2023-01-08T17:36:20.105Z,11.47
2023-01-08T17:38:50.763Z,12.10
2023-01-08T17:41:33.383Z,11.83
2023-01-08T17:44:01.831Z,12.93
2023-01-08T17:46:30.331Z,12.47
2023-01-08T17:48:58.729Z,11.93
2023-01-08T17:51:27.108Z,14.07
2023-01-08T17:53:57.606Z,13.53
2023-01-08T17:56:25.949Z,13.17
2023-01-08T17:58:54.671Z,13.60
2023-01-08T18:01:23.123Z,14.40
2023-01-08T18:03:51.587Z,14.33
2023-01-08T18:06:20.116Z,14.10
2023-01-08T18:08:48.511Z,14.83
2023-01-08T18:11:18.292Z,15.53
2023-01-08T18:13:46.697Z,15.40
2023-01-08T18:16:15.755Z,16.57
2023-01-08T18:18:44.183Z,14.90
2023-01-08T18:21:12.635Z,15.63
2023-01-08T18:23:41.151Z,15.67
2023-01-08T18:26:12.357Z,14.97
2023-01-08T18:28:42.644Z,15.20
2023-01-08T18:31:12.369Z,15.33
2023-01-08T18:33:42.104Z,14.57
2023-01-08T18:36:12.871Z,15.90
2023-01-08T18:38:42.463Z,14.67
2023-01-08T18:41:32.745Z,15.80
2023-01-08T18:44:03.105Z,16.13
2023-01-08T18:46:31.645Z,14.97
2023-01-08T18:48:59.986Z,15.10
2023-01-08T18:51:28.421Z,13.83
2023-01-08T18:53:56.810Z,13.23
2023-01-08T18:56:29.095Z,13.63
2023-01-08T18:58:57.583Z,14.00
2023-01-08T19:01:27.974Z,16.20
2023-01-08T19:03:56.915Z,15.80
2023-01-08T19:06:25.861Z,15.27
2023-01-08T19:08:56.295Z,13.90
2023-01-08T19:11:26.363Z,14.07
2023-01-08T19:13:56.266Z,12.77
2023-01-08T19:16:26.699Z,12.27
2023-01-08T19:18:55.273Z,12.00
2023-01-08T19:21:23.784Z,13.70
2023-01-08T19:23:52.222Z,14.73
2023-01-08T19:26:20.689Z,14.27
2023-01-08T19:28:49.107Z,12.73
2023-01-08T19:31:18.970Z,13.83
2023-01-08T19:33:48.799Z,13.57
2023-01-08T19:36:19.571Z,11.53
2023-01-08T19:38:48.289Z,12.07
2023-01-08T19:41:34.321Z,11.00
2023-01-08T19:44:03.152Z,10.23
2023-01-08T19:46:32.040Z,10.40
2023-01-08T19:49:02.232Z,10.53
2023-01-08T19:51:32.041Z,10.63
2023-01-08T19:54:01.016Z,9.40
2023-01-08T19:56:30.241Z,9.60
2023-01-08T19:58:58.914Z,9.70
2023-01-08T20:01:28.730Z,9.83
2023-01-08T20:03:57.595Z,10.03
2023-01-08T20:06:28.119Z,8.57
2023-01-08T20:08:59.590Z,9.83
2023-01-08T20:11:28.812Z,9.47
2023-01-08T20:14:00.452Z,9.07
2023-01-08T20:16:29.890Z,9.80
2023-01-08T20:18:59.255Z,9.47
2023-01-08T20:21:29.577Z,9.23
2023-01-08T20:23:59.876Z,8.80
2023-01-08T20:26:29.547Z,9.53
2023-01-08T20:28:58.781Z,9.87
2023-01-08T20:31:30.732Z,9.47
2023-01-08T20:34:00.277Z,10.00
2023-01-08T20:36:32.264Z,9.83
2023-01-08T20:39:02.666Z,9.63
2023-01-08T20:41:31.146Z,9.33
2023-01-08T20:43:59.688Z,9.70
2023-01-08T20:46:29.564Z,9.53
2023-01-08T20:48:59.828Z,9.47
2023-01-08T20:51:29.776Z,8.83
2023-01-08T20:53:58.165Z,12.77
2023-01-08T20:56:26.646Z,10.93
2023-01-08T20:58:55.132Z,9.80
2023-01-08T21:01:25.527Z,9.60
2023-01-08T21:03:56.910Z,10.77
2023-01-08T21:06:27.303Z,9.93
2023-01-08T21:08:58.528Z,9.90
2023-01-08T21:11:28.249Z,14.33
2023-01-08T21:13:57.164Z,8.60
2023-01-08T21:16:28.498Z,9.33
2023-01-08T21:18:58.321Z,9.60
2023-01-08T21:21:29.773Z,9.20
2023-01-08T21:24:00.513Z,8.33
2023-01-08T21:26:28.881Z,9.53
2023-01-08T21:28:57.348Z,8.90
2023-01-08T21:31:28.441Z,8.50
2023-01-08T21:33:58.440Z,10.07
2023-01-08T21:36:29.162Z,8.40
2023-01-08T21:38:59.375Z,8.90
2023-01-08T21:41:45.976Z,9.60
2023-01-08T21:44:33.847Z,9.63
2023-01-08T21:47:03.035Z,9.17
2023-01-08T21:49:31.831Z,9.97
2023-01-08T21:52:17.780Z,9.50
2023-01-08T21:54:47.731Z,9.77
2023-01-08T21:57:16.713Z,10.13
2023-01-08T21:59:44.990Z,10.20
2023-01-08T22:02:16.195Z,11.90
2023-01-08T22:04:45.049Z,10.37
2023-01-08T22:07:13.731Z,10.33
2023-01-08T22:09:42.197Z,11.77
2023-01-08T22:12:14.155Z,11.73
2023-01-08T22:14:42.540Z,10.90
2023-01-08T22:17:11.129Z,11.83
2023-01-08T22:19:40.240Z,12.57
2023-01-08T22:22:11.001Z,12.13
2023-01-08T22:24:40.346Z,12.20
2023-01-08T22:27:09.090Z,12.43
2023-01-08T22:29:39.069Z,11.50
2023-01-08T22:32:07.497Z,10.57
2023-01-08T22:34:36.737Z,10.10
2023-01-08T22:37:05.236Z,10.37
2023-01-08T22:39:33.731Z,10.13
2023-01-08T22:42:02.086Z,10.13
2023-01-08T22:44:30.752Z,9.97
2023-01-08T22:47:02.706Z,9.90
2023-01-08T22:49:31.214Z,9.60
2023-01-08T22:51:59.907Z,9.90
2023-01-08T22:54:28.584Z,9.70
2023-01-08T22:56:56.859Z,9.10
2023-01-08T22:59:25.461Z,9.40
2023-01-08T23:01:53.732Z,9.77
2023-01-08T23:04:23.596Z,9.20
2023-01-08T23:06:51.897Z,9.47
2023-01-08T23:09:20.301Z,9.10
2023-01-08T23:11:48.656Z,9.87
2023-01-08T23:14:17.152Z,9.33
2023-01-08T23:16:45.693Z,9.57
2023-01-08T23:19:14.106Z,9.27
2023-01-08T23:21:44.192Z,9.37
2023-01-08T23:24:14.252Z,9.40
2023-01-08T23:26:42.841Z,8.80
2023-01-08T23:29:11.785Z,8.63
2023-01-08T23:31:40.469Z,8.73
2023-01-08T23:34:09.140Z,8.53
2023-01-08T23:36:37.561Z,8.10
2023-01-08T23:39:07.711Z,7.90
2023-01-08T23:41:36.102Z,7.73
2023-01-08T23:44:06.279Z,8.13
2023-01-08T23:46:35.343Z,7.87
2023-01-08T23:49:04.208Z,7.00
2023-01-08T23:51:32.691Z,6.63
2023-01-08T23:54:01.227Z,7.70
2023-01-08T23:56:31.618Z,7.47
2023-01-08T23:59:00.165Z,7.03
